Foto enviada por Rafael Sobreiro mostrando as condições do Afonso Pena no sábado pela manhã. Um forte nevoeiro estava sobre o aeródromo.

METARes da manhã de ontem:
SBCT 200900Z 00000KT 1200 R15/P2000 R33/0400 BCFG BKN008
SBCT 200925Z 12002KT 3000 BR SCT010 18/17 Q1021=
SBCT 201000Z 10001KT 2600 BR SCT002 SCT010 19/19 Q1022=
SBCT 201010Z 07004KT 2100 BR BKN001 SCT010 19/19 Q1022=
SBCT 201015Z 06003KT 0800 R15/0800 R33/0800 FG OVC001 19/19 Q1022=
SBCT 201025Z 06004KT 0400 R15/0400 R33/0400 FG VV001 19/19 Q1022=
SBCT 201100Z 04003KT 0900 R15/0900 R33/0900 FG BKN001 BKN002 19/19 Q1022=
SBCT 201115Z 04002KT 3000 BR SCT001 BKN002 19/19 Q1022=